sensor_id;sensor_type;location;lat;lon;timestamp;pressure;altitude;pressure_sealevel;temperature;humidity
34674;BME280;20879;55.668;37.858;2023-07-08T00:00:53;99602.94;;;19.13;100.00
34674;BME280;20879;55.668;37.858;2023-07-08T00:03:28;99598.75;;;19.09;100.00
34674;BME280;20879;55.668;37.858;2023-07-08T00:06:02;99604.16;;;19.06;100.00
34674;BME280;20879;55.668;37.858;2023-07-08T00:08:33;99605.19;;;19.03;100.00
34674;BME280;20879;55.668;37.858;2023-07-08T00:11:08;99607.75;;;19.05;100.00
34674;BME280;20879;55.668;37.858;2023-07-08T00:13:45;99604.50;;;19.00;100.00
34674;BME280;20879;55.668;37.858;2023-07-08T00:16:17;99608.53;;;18.90;100.00
34674;BME280;20879;55.668;37.858;2023-07-08T00:18:47;99593.84;;;18.68;100.00
34674;BME280;20879;55.668;37.858;2023-07-08T00:21:23;99622.09;;;18.80;100.00
34674;BME280;20879;55.668;37.858;2023-07-08T00:24:06;99631.94;;;18.75;100.00
34674;BME280;20879;55.668;37.858;2023-07-08T00:26:35;99631.34;;;18.70;100.00
34674;BME280;20879;55.668;37.858;2023-07-08T00:29:08;99637.66;;;18.66;100.00
34674;BME280;20879;55.668;37.858;2023-07-08T00:31:38;99629.16;;;18.61;100.00
34674;BME280;20879;55.668;37.858;2023-07-08T00:34:07;99633.34;;;18.65;100.00
34674;BME280;20879;55.668;37.858;2023-07-08T00:36:37;99606.28;;;18.47;100.00
34674;BME280;20879;55.668;37.858;2023-07-08T00:39:13;99632.88;;;18.57;100.00
34674;BME280;20879;55.668;37.858;2023-07-08T00:41:43;99637.41;;;18.53;100.00
34674;BME280;20879;55.668;37.858;2023-07-08T00:44:23;99638.25;;;18.54;100.00
34674;BME280;20879;55.668;37.858;2023-07-08T00:46:57;99630.69;;;18.47;100.00
34674;BME280;20879;55.668;37.858;2023-07-08T00:49:34;99641.66;;;18.56;100.00
34674;BME280;20879;55.668;37.858;2023-07-08T00:52:18;99636.59;;;18.52;100.00
34674;BME280;20879;55.668;37.858;2023-07-08T00:54:58;99629.63;;;18.51;100.00
34674;BME280;20879;55.668;37.858;2023-07-08T00:57:37;99645.22;;;18.55;100.00
34674;BME280;20879;55.668;37.858;2023-07-08T01:00:15;99636.28;;;18.59;100.00
34674;BME280;20879;55.668;37.858;2023-07-08T01:02:49;99632.19;;;18.53;100.00
34674;BME280;20879;55.668;37.858;2023-07-08T01:05:27;99648.69;;;18.55;100.00
34674;BME280;20879;55.668;37.858;2023-07-08T01:07:59;99635.63;;;18.54;100.00
34674;BME280;20879;55.668;37.858;2023-07-08T01:10:36;99645.13;;;18.56;100.00
34674;BME280;20879;55.668;37.858;2023-07-08T01:13:17;99650.13;;;18.61;100.00
34674;BME280;20879;55.668;37.858;2023-07-08T01:15:48;99643.31;;;18.76;100.00
34674;BME280;20879;55.668;37.858;2023-07-08T01:18:23;99640.91;;;18.89;100.00
34674;BME280;20879;55.668;37.858;2023-07-08T01:21:04;99645.41;;;19.04;100.00
34674;BME280;20879;55.668;37.858;2023-07-08T01:23:41;99645.63;;;19.17;100.00
34674;BME280;20879;55.668;37.858;2023-07-08T01:26:17;99643.22;;;19.30;100.00
34674;BME280;20879;55.668;37.858;2023-07-08T01:28:47;99644.72;;;19.34;100.00
34674;BME280;20879;55.668;37.858;2023-07-08T01:31:33;99651.59;;;19.36;100.00
34674;BME280;20879;55.668;37.858;2023-07-08T01:34:04;99657.25;;;19.29;100.00
34674;BME280;20879;55.668;37.858;2023-07-08T01:36:38;99664.50;;;19.24;100.00
34674;BME280;20879;55.668;37.858;2023-07-08T01:39:14;99671.47;;;19.25;100.00
34674;BME280;20879;55.668;37.858;2023-07-08T01:41:55;99656.63;;;19.24;100.00
34674;BME280;20879;55.668;37.858;2023-07-08T01:44:28;99653.84;;;19.27;100.00
34674;BME280;20879;55.668;37.858;2023-07-08T01:47:07;99643.97;;;19.32;100.00
34674;BME280;20879;55.668;37.858;2023-07-08T01:49:39;99640.84;;;19.41;100.00
34674;BME280;20879;55.668;37.858;2023-07-08T01:52:10;99634.59;;;19.44;100.00
34674;BME280;20879;55.668;37.858;2023-07-08T01:54:43;99632.06;;;19.58;100.00
34674;BME280;20879;55.668;37.858;2023-07-08T01:57:12;99612.41;;;19.49;100.00
34674;BME280;20879;55.668;37.858;2023-07-08T01:59:48;99626.66;;;19.61;100.00
34674;BME280;20879;55.668;37.858;2023-07-08T02:02:17;99629.72;;;19.69;99.46
34674;BME280;20879;55.668;37.858;2023-07-08T02:04:47;99617.44;;;19.70;98.29
34674;BME280;20879;55.668;37.858;2023-07-08T02:07:16;99637.56;;;19.87;97.65
34674;BME280;20879;55.668;37.858;2023-07-08T02:09:48;99642.47;;;19.93;97.58
34674;BME280;20879;55.668;37.858;2023-07-08T02:12:17;99637.13;;;19.95;96.85
34674;BME280;20879;55.668;37.858;2023-07-08T02:14:51;99612.31;;;19.84;96.31
34674;BME280;20879;55.668;37.858;2023-07-08T02:17:21;99632.88;;;20.08;95.81
34674;BME280;20879;55.668;37.858;2023-07-08T02:20:11;99647.81;;;20.07;95.14
34674;BME280;20879;55.668;37.858;2023-07-08T02:22:40;99646.53;;;20.15;94.93
34674;BME280;20879;55.668;37.858;2023-07-08T02:25:12;99635.59;;;20.22;95.16
34674;BME280;20879;55.668;37.858;2023-07-08T02:27:41;99636.66;;;20.34;94.04
34674;BME280;20879;55.668;37.858;2023-07-08T02:30:10;99637.09;;;20.42;93.08
34674;BME280;20879;55.668;37.858;2023-07-08T02:32:40;99618.97;;;20.52;92.38
34674;BME280;20879;55.668;37.858;2023-07-08T02:35:15;99650.53;;;20.52;91.47
34674;BME280;20879;55.668;37.858;2023-07-08T02:37:45;99641.53;;;20.56;91.26
34674;BME280;20879;55.668;37.858;2023-07-08T02:40:16;99643.50;;;20.53;91.44
34674;BME280;20879;55.668;37.858;2023-07-08T02:42:50;99636.22;;;20.42;90.80
34674;BME280;20879;55.668;37.858;2023-07-08T02:45:20;99628.88;;;20.33;90.92
34674;BME280;20879;55.668;37.858;2023-07-08T02:47:49;99634.94;;;20.49;91.02
34674;BME280;20879;55.668;37.858;2023-07-08T02:50:23;99597.00;;;20.53;89.76
34674;BME280;20879;55.668;37.858;2023-07-08T02:52:53;99619.22;;;20.64;89.97
34674;BME280;20879;55.668;37.858;2023-07-08T02:55:35;99562.53;;;20.28;89.59
34674;BME280;20879;55.668;37.858;2023-07-08T02:58:05;99626.06;;;20.82;88.74
34674;BME280;20879;55.668;37.858;2023-07-08T03:00:34;99625.97;;;20.84;89.19
34674;BME280;20879;55.668;37.858;2023-07-08T03:03:04;99620.59;;;20.85;88.25
34674;BME280;20879;55.668;37.858;2023-07-08T03:05:54;99629.91;;;20.76;88.79
34674;BME280;20879;55.668;37.858;2023-07-08T03:08:23;99628.97;;;20.62;89.42
34674;BME280;20879;55.668;37.858;2023-07-08T03:10:58;99634.41;;;20.58;89.00
34674;BME280;20879;55.668;37.858;2023-07-08T03:13:33;99635.00;;;20.64;89.73
34674;BME280;20879;55.668;37.858;2023-07-08T03:16:04;99633.72;;;20.71;88.70
34674;BME280;20879;55.668;37.858;2023-07-08T03:18:40;99636.56;;;20.52;88.58
34674;BME280;20879;55.668;37.858;2023-07-08T03:21:15;99637.63;;;20.64;88.90
34674;BME280;20879;55.668;37.858;2023-07-08T03:23:51;99608.38;;;20.54;88.86
34674;BME280;20879;55.668;37.858;2023-07-08T03:26:25;99622.09;;;20.59;88.50
34674;BME280;20879;55.668;37.858;2023-07-08T03:29:04;99638.91;;;20.72;88.42
34674;BME280;20879;55.668;37.858;2023-07-08T03:31:45;99658.84;;;20.60;88.61
34674;BME280;20879;55.668;37.858;2023-07-08T03:34:16;99655.97;;;20.49;89.37
34674;BME280;20879;55.668;37.858;2023-07-08T03:36:48;99644.28;;;20.39;89.13
34674;BME280;20879;55.668;37.858;2023-07-08T03:39:29;99647.53;;;20.44;89.52
34674;BME280;20879;55.668;37.858;2023-07-08T03:42:01;99644.91;;;20.58;88.79
34674;BME280;20879;55.668;37.858;2023-07-08T03:44:30;99638.47;;;20.94;88.67
34674;BME280;20879;55.668;37.858;2023-07-08T03:46:59;99618.09;;;21.12;85.99
34674;BME280;20879;55.668;37.858;2023-07-08T03:49:29;99617.72;;;21.47;84.22
34674;BME280;20879;55.668;37.858;2023-07-08T03:51:58;99621.84;;;21.80;82.29
34674;BME280;20879;55.668;37.858;2023-07-08T03:54:27;99617.72;;;21.76;81.68
34674;BME280;20879;55.668;37.858;2023-07-08T03:56:58;99628.03;;;22.21;80.72
34674;BME280;20879;55.668;37.858;2023-07-08T03:59:35;99626.09;;;22.78;76.71
34674;BME280;20879;55.668;37.858;2023-07-08T04:02:04;99610.28;;;23.03;75.06
34674;BME280;20879;55.668;37.858;2023-07-08T04:04:34;99606.09;;;23.14;74.34
34674;BME280;20879;55.668;37.858;2023-07-08T04:07:05;99603.84;;;23.08;74.61
34674;BME280;20879;55.668;37.858;2023-07-08T04:09:40;99592.75;;;22.90;74.66
34674;BME280;20879;55.668;37.858;2023-07-08T04:12:10;99564.22;;;22.69;74.72
34674;BME280;20879;55.668;37.858;2023-07-08T04:14:42;99612.72;;;23.07;75.04
34674;BME280;20879;55.668;37.858;2023-07-08T04:17:18;99615.25;;;23.34;74.03
34674;BME280;20879;55.668;37.858;2023-07-08T04:19:50;99599.03;;;23.64;73.09
34674;BME280;20879;55.668;37.858;2023-07-08T04:22:19;99600.72;;;24.02;71.07
34674;BME280;20879;55.668;37.858;2023-07-08T04:24:55;99604.19;;;24.51;68.50
34674;BME280;20879;55.668;37.858;2023-07-08T04:27:24;99608.50;;;24.76;66.97
34674;BME280;20879;55.668;37.858;2023-07-08T04:30:01;99610.91;;;24.80;66.33
34674;BME280;20879;55.668;37.858;2023-07-08T04:32:31;99612.59;;;24.92;67.04
34674;BME280;20879;55.668;37.858;2023-07-08T04:35:07;99627.91;;;24.53;67.99
34674;BME280;20879;55.668;37.858;2023-07-08T04:37:37;99625.44;;;24.38;67.80
34674;BME280;20879;55.668;37.858;2023-07-08T04:40:16;99641.88;;;24.31;67.76
34674;BME280;20879;55.668;37.858;2023-07-08T04:42:46;99630.88;;;24.24;66.76
34674;BME280;20879;55.668;37.858;2023-07-08T04:45:25;99647.28;;;23.92;67.78
34674;BME280;20879;55.668;37.858;2023-07-08T04:47:54;99632.13;;;23.57;68.59
34674;BME280;20879;55.668;37.858;2023-07-08T04:50:23;99638.16;;;23.59;68.29
34674;BME280;20879;55.668;37.858;2023-07-08T04:52:53;99659.84;;;23.26;69.18
34674;BME280;20879;55.668;37.858;2023-07-08T04:55:41;99667.19;;;22.95;69.94
34674;BME280;20879;55.668;37.858;2023-07-08T04:58:16;99658.41;;;22.41;71.93
34674;BME280;20879;55.668;37.858;2023-07-08T05:00:47;99651.94;;;21.91;74.00
34674;BME280;20879;55.668;37.858;2023-07-08T05:03:22;99654.22;;;21.68;74.69
34674;BME280;20879;55.668;37.858;2023-07-08T05:06:02;99622.25;;;21.31;75.81
34674;BME280;20879;55.668;37.858;2023-07-08T05:08:32;99660.81;;;21.32;77.13
34674;BME280;20879;55.668;37.858;2023-07-08T05:11:01;99656.97;;;21.38;77.57
34674;BME280;20879;55.668;37.858;2023-07-08T05:13:31;99651.31;;;21.29;77.93
34674;BME280;20879;55.668;37.858;2023-07-08T05:16:03;99659.06;;;21.61;77.95
34674;BME280;20879;55.668;37.858;2023-07-08T05:18:33;99670.22;;;21.79;77.48
34674;BME280;20879;55.668;37.858;2023-07-08T05:21:08;99662.50;;;21.91;77.65
34674;BME280;20879;55.668;37.858;2023-07-08T05:23:43;99662.72;;;22.00;77.01
34674;BME280;20879;55.668;37.858;2023-07-08T05:26:12;99659.09;;;22.30;75.68
34674;BME280;20879;55.668;37.858;2023-07-08T05:28:42;99654.56;;;22.60;74.93
34674;BME280;20879;55.668;37.858;2023-07-08T05:31:13;99661.09;;;22.54;74.79
34674;BME280;20879;55.668;37.858;2023-07-08T05:33:43;99658.09;;;22.33;74.94
34674;BME280;20879;55.668;37.858;2023-07-08T05:36:12;99651.41;;;22.13;75.61
34674;BME280;20879;55.668;37.858;2023-07-08T05:38:41;99644.78;;;21.93;76.04
34674;BME280;20879;55.668;37.858;2023-07-08T05:41:11;99645.28;;;21.85;76.02
34674;BME280;20879;55.668;37.858;2023-07-08T05:43:51;99641.00;;;21.97;75.83
34674;BME280;20879;55.668;37.858;2023-07-08T05:46:22;99642.81;;;22.24;75.32
34674;BME280;20879;55.668;37.858;2023-07-08T05:48:57;99650.16;;;22.33;73.41
34674;BME280;20879;55.668;37.858;2023-07-08T05:51:28;99645.31;;;22.40;73.11
34674;BME280;20879;55.668;37.858;2023-07-08T05:53:57;99650.53;;;22.54;72.63
34674;BME280;20879;55.668;37.858;2023-07-08T05:56:27;99645.31;;;22.93;71.09
34674;BME280;20879;55.668;37.858;2023-07-08T05:58:57;99633.16;;;22.64;70.97
34674;BME280;20879;55.668;37.858;2023-07-08T06:01:29;99650.50;;;22.27;71.89
34674;BME280;20879;55.668;37.858;2023-07-08T06:04:04;99622.09;;;21.90;72.91
34674;BME280;20879;55.668;37.858;2023-07-08T06:06:34;99655.53;;;21.90;73.24
34674;BME280;20879;55.668;37.858;2023-07-08T06:09:06;99647.44;;;21.78;73.82
34674;BME280;20879;55.668;37.858;2023-07-08T06:11:35;99632.50;;;21.79;74.21
34674;BME280;20879;55.668;37.858;2023-07-08T06:14:05;99632.19;;;21.84;74.72
34674;BME280;20879;55.668;37.858;2023-07-08T06:16:41;99630.94;;;22.04;74.55
34674;BME280;20879;55.668;37.858;2023-07-08T06:19:18;99590.47;;;22.17;72.94
34674;BME280;20879;55.668;37.858;2023-07-08T06:21:48;99613.16;;;22.34;72.57
34674;BME280;20879;55.668;37.858;2023-07-08T06:24:17;99624.47;;;22.49;72.04
34674;BME280;20879;55.668;37.858;2023-07-08T06:26:46;99623.81;;;22.46;71.30
34674;BME280;20879;55.668;37.858;2023-07-08T06:29:18;99616.19;;;22.41;71.90
34674;BME280;20879;55.668;37.858;2023-07-08T06:31:50;99619.97;;;22.37;71.84
34674;BME280;20879;55.668;37.858;2023-07-08T06:34:20;99617.25;;;22.39;71.72
34674;BME280;20879;55.668;37.858;2023-07-08T06:36:51;99600.50;;;22.12;72.43
34674;BME280;20879;55.668;37.858;2023-07-08T06:39:20;99606.34;;;22.03;73.25
34674;BME280;20879;55.668;37.858;2023-07-08T06:41:54;99613.34;;;21.90;73.13
34674;BME280;20879;55.668;37.858;2023-07-08T06:44:30;99585.91;;;21.65;73.60
34674;BME280;20879;55.668;37.858;2023-07-08T06:47:02;99595.97;;;21.73;73.98
34674;BME280;20879;55.668;37.858;2023-07-08T06:49:31;99577.47;;;21.60;73.84
34674;BME280;20879;55.668;37.858;2023-07-08T06:52:00;99601.00;;;21.90;73.59
34674;BME280;20879;55.668;37.858;2023-07-08T06:54:29;99610.56;;;22.06;73.44
34674;BME280;20879;55.668;37.858;2023-07-08T06:56:59;99618.31;;;22.36;72.58
34674;BME280;20879;55.668;37.858;2023-07-08T06:59:29;99540.88;;;22.10;72.00
34674;BME280;20879;55.668;37.858;2023-07-08T07:01:58;99606.66;;;22.66;71.84
34674;BME280;20879;55.668;37.858;2023-07-08T07:04:34;99614.47;;;22.67;71.25
34674;BME280;20879;55.668;37.858;2023-07-08T07:07:04;99603.47;;;22.48;70.92
34674;BME280;20879;55.668;37.858;2023-07-08T07:09:34;99616.78;;;22.59;71.63
34674;BME280;20879;55.668;37.858;2023-07-08T07:12:06;99610.34;;;22.50;71.86
34674;BME280;20879;55.668;37.858;2023-07-08T07:14:45;99608.88;;;22.59;72.11
34674;BME280;20879;55.668;37.858;2023-07-08T07:17:16;99599.28;;;22.71;70.65
34674;BME280;20879;55.668;37.858;2023-07-08T07:19:48;99619.72;;;22.55;71.44
34674;BME280;20879;55.668;37.858;2023-07-08T07:22:17;99610.69;;;22.72;70.71
34674;BME280;20879;55.668;37.858;2023-07-08T07:24:46;99613.19;;;22.60;70.59
34674;BME280;20879;55.668;37.858;2023-07-08T07:27:21;99610.41;;;22.49;70.99
34674;BME280;20879;55.668;37.858;2023-07-08T07:29:51;99614.31;;;22.43;70.67
34674;BME280;20879;55.668;37.858;2023-07-08T07:32:31;99611.38;;;22.21;71.03
34674;BME280;20879;55.668;37.858;2023-07-08T07:35:06;99620.03;;;22.23;71.08
34674;BME280;20879;55.668;37.858;2023-07-08T07:37:35;99619.59;;;22.16;72.19
34674;BME280;20879;55.668;37.858;2023-07-08T07:40:06;99617.09;;;22.27;72.23
34674;BME280;20879;55.668;37.858;2023-07-08T07:42:41;99618.22;;;22.38;71.00
34674;BME280;20879;55.668;37.858;2023-07-08T07:45:11;99615.41;;;22.26;71.38
34674;BME280;20879;55.668;37.858;2023-07-08T07:47:46;99621.59;;;22.25;70.95
34674;BME280;20879;55.668;37.858;2023-07-08T07:50:18;99627.53;;;22.43;70.83
34674;BME280;20879;55.668;37.858;2023-07-08T07:52:47;99631.25;;;22.66;70.25
34674;BME280;20879;55.668;37.858;2023-07-08T07:55:16;99616.69;;;22.61;69.52
34674;BME280;20879;55.668;37.858;2023-07-08T07:57:45;99636.41;;;22.68;68.10
34674;BME280;20879;55.668;37.858;2023-07-08T08:00:17;99644.91;;;22.46;68.93
34674;BME280;20879;55.668;37.858;2023-07-08T08:02:47;99648.41;;;22.46;68.82
34674;BME280;20879;55.668;37.858;2023-07-08T08:05:18;99647.84;;;22.68;68.20
34674;BME280;20879;55.668;37.858;2023-07-08T08:07:53;99650.41;;;22.83;66.74
34674;BME280;20879;55.668;37.858;2023-07-08T08:10:22;99637.72;;;22.88;66.70
34674;BME280;20879;55.668;37.858;2023-07-08T08:12:56;99638.78;;;22.98;66.59
34674;BME280;20879;55.668;37.858;2023-07-08T08:15:26;99640.56;;;22.85;66.98
34674;BME280;20879;55.668;37.858;2023-07-08T08:17:55;99653.75;;;22.72;67.87
34674;BME280;20879;55.668;37.858;2023-07-08T08:20:27;99651.13;;;22.85;67.04
34674;BME280;20879;55.668;37.858;2023-07-08T08:22:56;99652.28;;;22.81;66.22
34674;BME280;20879;55.668;37.858;2023-07-08T08:25:26;99651.09;;;22.59;67.11
34674;BME280;20879;55.668;37.858;2023-07-08T08:28:00;99659.41;;;22.53;67.55
34674;BME280;20879;55.668;37.858;2023-07-08T08:30:31;99643.91;;;22.61;67.27
34674;BME280;20879;55.668;37.858;2023-07-08T08:33:05;99655.44;;;22.73;67.32
34674;BME280;20879;55.668;37.858;2023-07-08T08:35:36;99650.53;;;22.54;66.44
34674;BME280;20879;55.668;37.858;2023-07-08T08:38:06;99652.31;;;22.26;67.02
34674;BME280;20879;55.668;37.858;2023-07-08T08:40:41;99644.34;;;22.13;67.95
34674;BME280;20879;55.668;37.858;2023-07-08T08:43:19;99657.97;;;21.93;68.73
34674;BME280;20879;55.668;37.858;2023-07-08T08:46:08;99649.13;;;21.79;69.64
34674;BME280;20879;55.668;37.858;2023-07-08T08:48:47;99647.38;;;21.66;70.50
34674;BME280;20879;55.668;37.858;2023-07-08T08:51:28;99652.25;;;21.43;71.61
34674;BME280;20879;55.668;37.858;2023-07-08T08:54:07;99662.22;;;21.38;71.45
34674;BME280;20879;55.668;37.858;2023-07-08T08:56:46;99648.72;;;21.58;70.64
34674;BME280;20879;55.668;37.858;2023-07-08T08:59:25;99661.25;;;21.96;69.57
34674;BME280;20879;55.668;37.858;2023-07-08T09:02:14;99643.09;;;22.33;68.47
34674;BME280;20879;55.668;37.858;2023-07-08T09:04:48;99655.41;;;22.60;67.48
34674;BME280;20879;55.668;37.858;2023-07-08T09:07:20;99631.56;;;22.62;67.16
34674;BME280;20879;55.668;37.858;2023-07-08T09:12:31;99638.31;;;22.66;67.33
34674;BME280;20879;55.668;37.858;2023-07-08T09:15:12;99650.75;;;22.51;68.24
34674;BME280;20879;55.668;37.858;2023-07-08T09:17:47;99652.00;;;22.31;68.18
34674;BME280;20879;55.668;37.858;2023-07-08T09:20:32;99644.78;;;21.93;69.37
34674;BME280;20879;55.668;37.858;2023-07-08T09:23:11;99649.75;;;21.97;68.83
34674;BME280;20879;55.668;37.858;2023-07-08T09:25:51;99631.66;;;22.06;68.42
34674;BME280;20879;55.668;37.858;2023-07-08T09:28:21;99643.56;;;22.40;67.37
34674;BME280;20879;55.668;37.858;2023-07-08T09:31:22;99633.78;;;22.55;66.37
34674;BME280;20879;55.668;37.858;2023-07-08T09:34:07;99642.47;;;23.09;65.91
34674;BME280;20879;55.668;37.858;2023-07-08T09:36:41;99642.19;;;23.00;64.50
34674;BME280;20879;55.668;37.858;2023-07-08T09:39:19;99648.84;;;23.06;64.64
34674;BME280;20879;55.668;37.858;2023-07-08T09:41:49;99644.22;;;23.23;63.78
34674;BME280;20879;55.668;37.858;2023-07-08T09:44:23;99644.06;;;23.50;63.30
34674;BME280;20879;55.668;37.858;2023-07-08T09:47:00;99651.09;;;24.25;62.10
34674;BME280;20879;55.668;37.858;2023-07-08T09:49:33;99660.59;;;24.52;59.62
34674;BME280;20879;55.668;37.858;2023-07-08T09:52:04;99659.25;;;24.46;60.16
34674;BME280;20879;55.668;37.858;2023-07-08T09:54:35;99650.09;;;24.63;58.82
34674;BME280;20879;55.668;37.858;2023-07-08T09:57:11;99645.53;;;24.17;59.79
34674;BME280;20879;55.668;37.858;2023-07-08T09:59:47;99652.09;;;23.87;60.04
34674;BME280;20879;55.668;37.858;2023-07-08T10:02:27;99650.81;;;23.80;60.31
34674;BME280;20879;55.668;37.858;2023-07-08T10:04:59;99649.25;;;23.51;60.22
34674;BME280;20879;55.668;37.858;2023-07-08T10:07:30;99654.03;;;23.46;60.52
34674;BME280;20879;55.668;37.858;2023-07-08T10:10:06;99648.16;;;23.80;59.45
34674;BME280;20879;55.668;37.858;2023-07-08T10:12:40;99652.16;;;23.85;58.90
34674;BME280;20879;55.668;37.858;2023-07-08T10:15:17;99643.44;;;24.09;58.13
34674;BME280;20879;55.668;37.858;2023-07-08T10:17:49;99641.00;;;24.30;57.78
34674;BME280;20879;55.668;37.858;2023-07-08T10:20:19;99638.53;;;24.16;58.16
34674;BME280;20879;55.668;37.858;2023-07-08T10:23:01;99643.59;;;24.43;57.86
34674;BME280;20879;55.668;37.858;2023-07-08T10:25:41;99642.38;;;24.60;57.45
34674;BME280;20879;55.668;37.858;2023-07-08T10:28:24;99652.00;;;24.37;57.17
34674;BME280;20879;55.668;37.858;2023-07-08T10:31:04;99658.31;;;23.86;58.09
34674;BME280;20879;55.668;37.858;2023-07-08T10:33:53;99636.38;;;23.97;58.00
34674;BME280;20879;55.668;37.858;2023-07-08T10:36:33;99641.75;;;24.32;56.10
34674;BME280;20879;55.668;37.858;2023-07-08T10:39:24;99616.13;;;24.33;55.59
34674;BME280;20879;55.668;37.858;2023-07-08T10:42:04;99631.25;;;24.19;56.14
34674;BME280;20879;55.668;37.858;2023-07-08T10:44:40;99630.09;;;24.35;55.19
34674;BME280;20879;55.668;37.858;2023-07-08T10:47:28;99621.97;;;24.73;55.20
34674;BME280;20879;55.668;37.858;2023-07-08T10:50:17;99628.28;;;24.59;55.67
34674;BME280;20879;55.668;37.858;2023-07-08T10:52:57;99638.41;;;24.17;56.86
34674;BME280;20879;55.668;37.858;2023-07-08T10:55:42;99640.13;;;24.42;56.03
34674;BME280;20879;55.668;37.858;2023-07-08T10:58:29;99635.75;;;24.66;55.73
34674;BME280;20879;55.668;37.858;2023-07-08T11:01:11;99646.38;;;24.41;55.74
34674;BME280;20879;55.668;37.858;2023-07-08T11:06:48;99602.03;;;24.21;56.46
34674;BME280;20879;55.668;37.858;2023-07-08T11:09:23;99600.44;;;24.42;57.03
34674;BME280;20879;55.668;37.858;2023-07-08T11:12:04;99613.44;;;24.21;56.90
34674;BME280;20879;55.668;37.858;2023-07-08T11:14:49;99623.25;;;24.43;55.56
34674;BME280;20879;55.668;37.858;2023-07-08T11:17:24;99624.47;;;24.64;54.36
34674;BME280;20879;55.668;37.858;2023-07-08T11:20:12;99603.78;;;24.45;55.50
34674;BME280;20879;55.668;37.858;2023-07-08T11:22:50;99625.25;;;24.53;54.79
34674;BME280;20879;55.668;37.858;2023-07-08T11:25:28;99623.34;;;24.31;56.34
34674;BME280;20879;55.668;37.858;2023-07-08T11:28:05;99615.81;;;24.13;55.32
34674;BME280;20879;55.668;37.858;2023-07-08T11:30:44;99623.81;;;24.00;56.08
34674;BME280;20879;55.668;37.858;2023-07-08T11:33:18;99618.75;;;23.97;56.17
34674;BME280;20879;55.668;37.858;2023-07-08T11:35:54;99615.25;;;24.21;55.42
34674;BME280;20879;55.668;37.858;2023-07-08T11:38:26;99611.44;;;24.36;54.47
34674;BME280;20879;55.668;37.858;2023-07-08T11:40:58;99639.34;;;24.29;54.91
34674;BME280;20879;55.668;37.858;2023-07-08T11:43:40;99589.78;;;23.96;54.41
34674;BME280;20879;55.668;37.858;2023-07-08T11:46:18;99629.44;;;23.83;55.15
34674;BME280;20879;55.668;37.858;2023-07-08T11:48:55;99633.22;;;24.04;55.32
34674;BME280;20879;55.668;37.858;2023-07-08T11:51:32;99624.25;;;24.54;54.25
34674;BME280;20879;55.668;37.858;2023-07-08T11:54:12;99590.56;;;24.45;53.33
34674;BME280;20879;55.668;37.858;2023-07-08T11:57:03;99615.19;;;24.10;53.82
34674;BME280;20879;55.668;37.858;2023-07-08T11:59:43;99607.81;;;24.02;53.97
34674;BME280;20879;55.668;37.858;2023-07-08T12:02:17;99609.38;;;24.29;53.68
34674;BME280;20879;55.668;37.858;2023-07-08T12:04:56;99598.03;;;24.39;53.88
34674;BME280;20879;55.668;37.858;2023-07-08T12:07:33;99603.91;;;24.19;54.32
34674;BME280;20879;55.668;37.858;2023-07-08T12:10:11;99584.81;;;24.15;54.14
34674;BME280;20879;55.668;37.858;2023-07-08T12:12:42;99597.50;;;23.86;53.41
34674;BME280;20879;55.668;37.858;2023-07-08T12:15:17;99604.31;;;23.64;55.11
34674;BME280;20879;55.668;37.858;2023-07-08T12:17:55;99600.91;;;23.75;54.00
34674;BME280;20879;55.668;37.858;2023-07-08T12:20:32;99587.84;;;23.85;53.44
34674;BME280;20879;55.668;37.858;2023-07-08T12:23:02;99597.53;;;23.73;51.74
34674;BME280;20879;55.668;37.858;2023-07-08T12:25:33;99593.38;;;23.82;51.61
34674;BME280;20879;55.668;37.858;2023-07-08T12:28:09;99600.25;;;23.84;51.34
34674;BME280;20879;55.668;37.858;2023-07-08T12:30:40;99617.44;;;24.51;50.65
34674;BME280;20879;55.668;37.858;2023-07-08T12:33:14;99606.28;;;25.17;49.98
34674;BME280;20879;55.668;37.858;2023-07-08T12:35:50;99601.63;;;25.87;48.14
34674;BME280;20879;55.668;37.858;2023-07-08T12:38:28;99607.69;;;26.01;46.80
34674;BME280;20879;55.668;37.858;2023-07-08T12:41:08;99599.97;;;25.75;47.07
34674;BME280;20879;55.668;37.858;2023-07-08T12:50:25;99596.97;;;24.18;50.02
34674;BME280;20879;55.668;37.858;2023-07-08T12:52:55;99607.34;;;23.84;49.83
34674;BME280;20879;55.668;37.858;2023-07-08T12:55:32;99617.41;;;23.66;48.28
34674;BME280;20879;55.668;37.858;2023-07-08T12:58:09;99611.84;;;23.58;47.34
34674;BME280;20879;55.668;37.858;2023-07-08T13:00:42;99614.41;;;23.46;48.23
34674;BME280;20879;55.668;37.858;2023-07-08T13:03:24;99599.28;;;23.48;48.18
34674;BME280;20879;55.668;37.858;2023-07-08T13:05:57;99615.28;;;23.84;48.58
34674;BME280;20879;55.668;37.858;2023-07-08T13:08:34;99582.72;;;23.70;49.64
34674;BME280;20879;55.668;37.858;2023-07-08T13:11:06;99617.94;;;24.08;49.29
34674;BME280;20879;55.668;37.858;2023-07-08T13:13:41;99626.72;;;24.33;48.59
34674;BME280;20879;55.668;37.858;2023-07-08T13:16:14;99619.94;;;24.53;48.33
34674;BME280;20879;55.668;37.858;2023-07-08T13:18:44;99621.97;;;24.49;47.77
34674;BME280;20879;55.668;37.858;2023-07-08T13:21:16;99617.59;;;24.61;47.23
34674;BME280;20879;55.668;37.858;2023-07-08T13:23:46;99621.41;;;24.57;46.76
34674;BME280;20879;55.668;37.858;2023-07-08T13:26:27;99613.91;;;24.39;47.61
34674;BME280;20879;55.668;37.858;2023-07-08T13:29:04;99605.84;;;24.17;47.44
34674;BME280;20879;55.668;37.858;2023-07-08T13:31:46;99573.16;;;24.18;45.44
34674;BME280;20879;55.668;37.858;2023-07-08T13:34:24;99619.06;;;24.17;44.72
34674;BME280;20879;55.668;37.858;2023-07-08T13:37:00;99643.88;;;24.75;43.41